Latest Weather Observations for Avalon

IDV60901

Issued at 6:11 pm EST Friday 28 April 2017 (issued every 10 minutes, with the page automatically refreshed every 10 minutes)

About weather observations | Map of Melbourne area stations | Latest observations for Melbourne area | Other Formats
Station Details ID: 087113 Name: AVALON AIRPORT Lat: -38.03 Lon: 144.48 Height: 10.6 m
Data from the previous 72 hours. | See also: Recent months at Avalon
Date/Time
EST
Temp
°C
App
Temp
°C
Dew
Point
°C
Rel
Hum
%
Delta-T
°C
Wind Press
QNH
hPa
Press
MSL
hPa
Rain since
9am
mm
Dir  Spd
km/h
Gust
km/h
Spd
kts
Gust
kts
28/06:00pm 15.9 12.9 13.6 86 1.3 W 22 30 12 16 1021.9 1021.9 0.0
28/05:30pm 16.3 13.8 13.4 83 1.6 W 19 28 10 15 1021.7 1021.7 0.0
28/05:00pm 17.4 13.6 13.5 78 2.2 W 26 35 14 19 1021.7 1021.7 0.0
28/04:30pm 17.4 13.9 13.5 78 2.2 W 24 33 13 18 1021.7 1021.7 0.0
28/04:00pm 18.0 13.9 13.9 77 2.3 WNW 28 33 15 18 1021.6 1021.6 0.0
28/03:30pm 18.5 14.3 13.6 73 2.8 W 28 37 15 20 1021.6 1021.6 0.0
28/03:00pm 18.3 14.9 13.6 74 2.7 W 24 33 13 18 1021.7 1021.7 0.0
28/02:30pm 18.1 13.3 13.0 72 2.9 W 30 43 16 23 1021.8 1021.8 0.0
28/02:00pm 18.5 14.9 14.2 76 2.5 W 26 35 14 19 1021.9 1021.9 0.0
28/01:30pm 18.1 14.1 14.0 77 2.3 W 28 41 15 22 1022.1 1022.1 0.0
28/01:00pm 17.5 13.4 13.8 79 2.1 W 28 37 15 20 1022.3 1022.3 0.0
28/12:30pm 17.8 14.3 14.5 81 1.9 W 26 35 14 19 1022.6 1022.6 0.0
28/12:00pm 17.6 13.7 14.3 81 1.9 W 28 37 15 20 1023.1 1023.1 0.0
28/11:30am 17.2 13.0 13.5 79 2.1 W 28 37 15 20 1023.3 1023.3 0.0
28/11:00am 17.1 12.5 13.6 80 2.0 W 30 35 16 19 1023.4 1023.4 0.0
28/10:30am 16.5 12.3 13.6 83 1.6 W 28 35 15 19 1023.5 1023.5 0.0
28/10:00am 15.8 11.6 13.5 86 1.3 W 28 35 15 19 1023.7 1023.7 0.0
28/09:54am 15.6 11.4 13.4 87 1.2 W 28 35 15 19 1023.7 1023.7 0.0
28/09:30am 15.3 11.8 13.3 88 1.1 W 24 32 13 17 1023.6 1023.6 0.0
28/09:23am 15.2 12.1 13.4 89 1.0 WNW 22 30 12 16 1023.6 1023.6 0.0
28/09:00am 14.4 11.6 13.1 92 0.7 WNW 20 26 11 14 1023.5 1023.5 0.8
28/08:30am 13.5 11.4 12.4 93 0.6 WNW 15 17 8 9 1023.4 1023.4 0.8
28/08:00am 12.8 10.6 12.0 95 0.4 WNW 15 20 8 11 1023.2 1023.2 0.8
28/07:30am 11.2 9.0 10.9 98 0.2 NW 13 15 7 8 1023.0 1023.0 0.8
28/07:00am 10.8 8.5 10.6 99 0.1 NW 13 17 7 9 1022.8 1022.8 0.8
28/06:30am 9.9 7.8 9.8 99 0.1 NW 11 13 6 7 1022.5 1022.5 0.8
28/06:00am 10.0 7.6 10.0 100 0.0 NW 13 17 7 9 1022.5 1022.5 0.8
28/05:30am 9.3 7.1 9.2 99 0.0 NW 11 13 6 7 1022.4 1022.4 0.8
28/05:00am 10.1 8.1 10.0 99 0.1 NW 11 13 6 7 1022.2 1022.2 0.8
28/04:30am 10.7 8.4 10.5 99 0.1 NW 13 15 7 8 1022.3 1022.3 0.8
28/04:00am 10.1 7.7 10.1 100 0.0 NW 13 15 7 8 1022.3 1022.3 0.8
28/03:30am 9.7 7.6 9.6 99 0.0 NW 11 13 6 7 1022.4 1022.4 0.8
28/03:00am 10.0 8.3 9.9 99 0.1 NW 9 11 5 6 1022.6 1022.6 0.8
28/02:30am 10.7 8.8 10.5 99 0.1 WNW 11 13 6 7 1022.7 1022.7 0.8
28/02:00am 11.3 9.2 11.1 99 0.1 NW 13 19 7 10 1022.7 1022.7 0.8
28/01:30am 11.3 8.4 11.1 99 0.1 WNW 17 20 9 11 1022.8 1022.8 0.8
28/01:00am 11.0 7.7 10.8 99 0.1 WNW 19 22 10 12 1022.8 1022.8 0.8
28/12:30am 11.2 8.7 10.9 98 0.2 WNW 15 19 8 10 1023.2 1023.2 0.8
28/12:00am 11.2 8.2 10.7 97 0.3 WNW 17 22 9 12 1023.1 1023.1 0.8
 
Date/Time
EST
Temp
°C
App
Temp
°C
Dew
Point
°C
Rel
Hum
%
Delta-T
°C
Wind Press
QNH
hPa
Press
MSL
hPa
Rain since
9am
mm
Dir  Spd
km/h
Gust
km/h
Spd
kts
Gust
kts
27/11:30pm 11.0 7.8 10.1 94 0.5 NW 17 20 9 11 1023.2 1023.2 0.8
27/11:00pm 11.2 8.0 9.8 91 0.7 NW 17 20 9 11 1023.3 1023.3 0.8
27/10:30pm 11.6 9.2 9.9 89 0.9 NW 13 17 7 9 1023.4 1023.4 0.8
27/10:00pm 11.7 8.5 9.8 88 1.0 WNW 17 22 9 12 1023.4 1023.4 0.8
27/09:30pm 11.7 8.8 9.8 88 1.0 WNW 15 20 8 11 1023.3 1023.3 0.8
27/09:00pm 11.5 9.4 9.8 89 0.9 NW 11 13 6 7 1023.0 1023.0 0.8
27/08:30pm 11.3 9.7 10.2 93 0.6 NNW 9 11 5 6 1023.2 1023.2 0.8
27/08:00pm 11.4 10.1 9.8 90 0.8 NNW 7 9 4 5 1023.1 1023.1 0.8
27/07:30pm 11.6 9.9 9.9 89 0.9 WNW 9 11 5 6 1023.1 1023.1 0.8
27/07:00pm 11.3 9.5 9.6 89 0.9 WNW 9 11 5 6 1023.0 1023.0 0.8
27/06:30pm 11.2 9.3 8.9 86 1.1 WNW 9 13 5 7 1023.0 1023.0 0.8
27/06:00pm 11.7 10.3 9.6 87 1.1 NNW 7 11 4 6 1022.8 1022.8 0.8
27/05:30pm 11.9 11.8 9.3 84 1.3 CALM 0 4 0 2 1022.8 1022.8 0.8
27/05:00pm 12.1 10.7 9.5 84 1.3 NW 7 11 4 6 1022.6 1022.6 0.8
27/04:30pm 12.2 9.6 9.2 82 1.5 NW 13 19 7 10 1022.5 1022.5 0.8
27/04:00pm 11.9 8.2 9.5 85 1.2 W 19 20 10 11 1022.8 1022.8 0.8
27/03:30pm 12.0 7.0 9.4 84 1.3 W 26 33 14 18 1023.1 1023.1 0.8
27/03:00pm 12.5 8.3 9.7 83 1.4 W 22 28 12 15 1023.2 1023.2 0.8
27/02:30pm 12.2 8.3 9.6 84 1.3 W 20 30 11 16 1023.2 1023.2 0.8
27/02:00pm 11.8 8.4 9.0 83 1.4 SW 17 22 9 12 1023.3 1023.3 0.6
27/01:30pm 13.4 9.5 7.0 65 3.1 WSW 17 22 9 12 1023.0 1023.0 0.0
27/01:00pm 13.7 10.6 7.2 65 3.2 WSW 13 20 7 11 1022.9 1022.9 0.0
27/12:30pm 12.6 7.9 7.9 73 2.3 SSW 22 28 12 15 1023.4 1023.4 0.0
27/12:00pm 13.2 8.8 7.4 68 2.8 SW 20 26 11 14 1023.7 1023.7 0.0
27/11:30am 12.4 7.8 6.7 68 2.7 WSW 20 33 11 18 1023.7 1023.7 0.0
27/11:00am 11.9 6.8 7.6 75 2.1 W 24 33 13 18 1024.0 1024.0 0.0
27/10:30am 12.2 7.1 7.5 73 2.3 WSW 24 32 13 17 1023.7 1023.7 0.0
27/10:00am 11.2 6.8 7.5 78 1.8 W 20 28 11 15 1023.5 1023.5 0.0
27/09:30am 11.6 8.6 7.7 77 1.9 WSW 13 17 7 9 1023.5 1023.5 0.0
27/09:00am 10.0 6.3 7.8 86 1.1 W 17 22 9 12 1023.6 1023.6 3.2
27/08:30am 8.6 4.8 7.4 92 0.6 WNW 17 19 9 10 1023.3 1023.3 3.2
27/08:00am 7.9 3.4 7.0 94 0.4 WNW 20 24 11 13 1022.9 1022.9 3.2
27/07:30am 7.5 3.4 6.4 93 0.5 W 17 20 9 11 1022.7 1022.7 3.2
27/07:00am 7.4 2.3 6.2 92 0.5 W 22 26 12 14 1022.4 1022.4 3.2
27/06:30am 7.5 4.2 6.3 92 0.5 W 13 20 7 11 1022.3 1022.3 3.2
27/06:00am 7.5 2.7 5.8 89 0.8 W 20 24 11 13 1021.9 1021.9 3.0
27/05:30am 7.6 2.8 5.7 88 0.9 W 20 26 11 14 1021.4 1021.4 3.0
27/05:00am 7.1 3.0 6.0 93 0.5 W 17 22 9 12 1021.0 1021.0 3.0
27/04:30am 6.8 2.2 5.4 91 0.6 W 19 22 10 12 1020.9 1020.9 3.0
27/04:00am 7.1 2.3 5.7 91 0.6 WNW 20 28 11 15 1020.7 1020.7 3.0
27/03:30am 7.3 2.6 6.1 92 0.5 W 20 26 11 14 1020.6 1020.6 3.0
27/03:00am 7.5 3.1 6.6 94 0.4 W 19 28 10 15 1020.6 1020.6 3.0
27/02:30am 7.0 2.5 5.9 93 0.5 W 19 24 10 13 1020.8 1020.8 3.0
27/02:00am 7.1 2.6 6.0 93 0.5 W 19 22 10 12 1020.8 1020.8 3.0
27/01:30am 7.5 2.5 6.3 92 0.5 W 22 28 12 15 1020.6 1020.6 3.0
27/01:00am 7.6 3.5 6.4 92 0.5 W 17 24 9 13 1020.4 1020.4 3.0
27/12:30am 7.3 3.2 6.4 94 0.4 W 17 20 9 11 1020.2 1020.2 2.8
27/12:00am 7.6 3.0 6.7 94 0.4 W 20 28 11 15 1020.3 1020.3 2.8
 
Date/Time
EST
Temp
°C
App
Temp
°C
Dew
Point
°C
Rel
Hum
%
Delta-T
°C
Wind Press
QNH
hPa
Press
MSL
hPa
Rain since
9am
mm
Dir  Spd
km/h
Gust
km/h
Spd
kts
Gust
kts
26/11:30pm 8.3 3.0 6.9 91 0.7 WSW 24 35 13 19 1020.0 1020.0 2.8
26/11:00pm 7.4 2.9 6.3 93 0.5 W 19 24 10 13 1019.9 1019.9 2.8
26/10:30pm 7.9 4.7 6.8 93 0.5 W 13 19 7 10 1020.1 1020.1 2.6
26/10:00pm 7.8 3.2 6.4 91 0.6 W 20 28 11 15 1020.1 1020.1 2.4
26/09:30pm 7.7 3.3 6.5 92 0.5 W 19 22 10 12 1019.9 1019.9 2.0
26/09:00pm 8.1 3.6 6.2 88 0.9 W 19 28 10 15 1019.5 1019.5 2.0
26/08:30pm 8.5 3.1 6.3 86 1.0 WSW 24 35 13 19 1019.5 1019.5 2.0
26/08:00pm 8.3 3.7 6.3 87 0.9 W 20 30 11 16 1018.7 1018.7 1.8
26/07:30pm 8.6 3.9 5.9 83 1.2 W 20 28 11 15 1018.7 1018.7 1.8
26/07:00pm 8.7 4.3 4.9 77 1.7 W 17 22 9 12 1018.3 1018.3 1.4
26/06:30pm 9.7 4.4 4.9 72 2.2 WSW 22 30 12 16 1017.8 1017.8 1.4
26/06:00pm 10.0 3.3 5.6 74 2.0 SW 30 48 16 26 1017.6 1017.6 1.4
26/05:58pm 10.2 3.8 5.4 72 2.2 SW 28 48 15 26 1017.6 1017.6 1.4
26/05:30pm 10.9 5.3 5.2 68 2.6 WSW 24 32 13 17 1017.2 1017.2 1.4
26/05:00pm 11.2 4.1 5.5 68 2.6 SW 32 41 17 22 1016.5 1016.5 1.4
26/04:30pm 10.3 4.0 5.7 73 2.1 WSW 28 35 15 19 1016.3 1016.3 1.4
26/04:00pm 11.3 3.2 5.2 66 2.8 SW 37 57 20 31 1016.1 1016.1 1.4
26/03:58pm 11.7 4.4 5.6 66 2.8 SW 33 57 18 31 1016.1 1016.1 1.4
26/03:30pm 11.7 5.1 4.2 60 3.4 WSW 28 39 15 21 1015.7 1015.7 1.4
26/03:19pm 10.9 3.6 5.4 69 2.5 SW 33 46 18 25 1015.6 1015.6 1.4
26/03:00pm 12.3 4.5 6.6 68 2.7 SSW 37 46 20 25 1015.3 1015.3 1.4
26/02:43pm 12.1 3.6 5.3 63 3.1 SW 39 67 21 36 1015.0 1015.0 1.4
26/02:30pm 12.9 4.2 4.1 55 4.0 SW 39 48 21 26 1014.8 1014.8 1.4
26/02:00pm 11.5 4.3 6.0 69 2.6 SW 33 46 18 25 1014.7 1014.7 1.4
26/01:48pm 10.7 4.6 6.5 75 2.0 SW 28 46 15 25 1014.8 1014.8 1.2
26/01:30pm 11.7 6.7 6.4 70 2.5 WSW 22 28 12 15 1014.3 1014.3 1.2
26/01:15pm 10.0 1.3 5.8 75 1.9 SW 41 59 22 32 1014.6 1014.6 1.2
26/01:08pm 10.9 2.6 6.1 72 2.2 SW 39 56 21 30 1014.4 1014.4 1.0
26/01:00pm 11.4 2.3 5.9 69 2.6 SSW 43 57 23 31 1014.2 1014.2 1.0
26/12:50pm 13.2 6.9 7.4 68 2.8 SW 30 50 16 27 1014.1 1014.1 1.0
26/12:30pm 11.9 4.0 6.4 69 2.6 SSW 37 54 20 29 1014.0 1014.0 1.0
26/12:06pm 12.5 4.4 7.2 70 2.6 SW 39 52 21 28 1013.7 1013.7 1.0
26/12:00pm 12.2 5.2 8.5 78 1.8 SW 35 46 19 25 1013.6 1013.6 1.0
26/11:50am 10.0 0.2 7.1 82 1.4 SW 48 70 26 38 1013.8 1013.8 1.0
26/11:49am 9.8 0.0 7.1 83 1.3 SW 48 70 26 38 1013.9 1013.9 1.0
26/11:46am 11.2 1.8 7.1 76 2.0 SW 46 70 25 38 1013.6 1013.6 0.6
26/11:44am 12.9 4.6 7.6 70 2.6 SW 41 63 22 34 1013.5 1013.5 0.6
26/11:30am 13.0 4.9 7.0 67 2.9 SSW 39 48 21 26 1013.3 1013.3 0.6
26/11:15am 11.9 4.6 7.0 72 2.3 SSW 35 56 19 30 1013.1 1013.1 0.6
26/11:00am 11.2 3.7 6.5 73 2.2 SSW 35 48 19 26 1012.9 1012.9 0.6
26/10:30am 12.6 3.8 7.3 70 2.6 SSW 43 59 23 32 1012.4 1012.4 0.2
26/10:02am 11.4 2.8 6.7 73 2.2 SSW 41 59 22 32 1012.0 1012.0 0.2
26/10:00am 11.3 2.2 6.8 74 2.1 SSW 44 59 24 32 1012.0 1012.0 0.2
26/09:35am 10.3 1.5 7.2 81 1.5 SSW 43 61 23 33 1011.6 1011.6 0.2
26/09:30am 10.3 1.9 7.2 81 1.5 SW 41 61 22 33 1011.7 1011.7 0.0
26/09:00am 10.2 4.4 8.0 86 1.1 SW 28 46 15 25 1010.9 1010.9 7.8
26/08:59am 10.1 4.3 8.0 87 1.0 SW 28 46 15 25 1010.9 1010.9 7.8
26/08:30am 10.1 4.8 8.4 89 0.8 WSW 26 35 14 19 1010.3 1010.3 7.0
26/08:00am 9.9 6.0 9.3 96 0.3 WNW 20 24 11 13 1009.9 1009.9 6.8
26/07:30am 9.9 5.8 8.7 92 0.6 SW 20 28 11 15 1009.1 1009.1 6.8
26/07:16am 9.9 5.5 9.1 95 0.4 WSW 22 30 12 16 1009.1 1009.1 6.6
26/07:00am 9.9 5.5 9.1 95 0.4 WSW 22 33 12 18 1008.8 1008.8 6.0
26/06:59am 9.9 5.5 9.1 95 0.4 WSW 22 33 12 18 1008.9 1008.9 5.8
26/06:30am 10.1 5.8 9.2 94 0.4 SW 22 35 12 19 1007.8 1007.8 4.8
26/06:00am 10.2 6.5 10.1 99 0.1 W 20 30 11 16 1007.3 1007.3 4.4
26/05:30am 10.1 7.3 10.0 99 0.1 WNW 15 19 8 10 1006.7 1006.7 4.2
26/05:00am 10.1 6.9 10.0 99 0.1 W 17 20 9 11 1006.0 1006.0 4.2
26/04:30am 10.4 6.9 10.2 99 0.1 W 19 24 10 13 1005.9 1005.9 4.0
26/04:00am 10.7 4.4 9.6 93 0.6 WSW 33 46 18 25 1005.5 1005.5 3.8
26/03:46am 10.8 5.5 10.0 95 0.4 SW 28 46 15 25 1005.1 1005.1 3.6
26/03:36am 10.8 4.7 9.9 94 0.5 SW 32 48 17 26 1005.2 1005.2 3.4
26/03:30am 10.8 4.8 10.0 95 0.4 SW 32 48 17 26 1005.1 1005.1 3.2
26/03:17am 11.1 5.2 10.6 97 0.3 SW 32 52 17 28 1004.9 1004.9 2.6
26/03:00am 11.3 4.8 10.5 95 0.4 SW 35 46 19 25 1004.6 1004.6 1.8
26/02:47am 11.5 5.6 10.6 94 0.5 W 32 43 17 23 1004.3 1004.3 1.2
26/02:30am 12.0 5.0 9.9 87 1.1 W 37 46 20 25 1004.0 1004.0 1.0
26/02:23am 12.6 7.6 9.6 82 1.5 W 26 46 14 25 1003.7 1003.7 1.0
26/02:22am 12.9 7.9 9.7 81 1.6 W 26 44 14 24 1003.7 1003.7 1.0
26/02:00am 13.3 9.9 10.7 84 1.4 NNW 19 24 10 13 1003.0 1003.0 1.0
26/01:30am 13.5 9.6 10.7 83 1.5 NW 22 28 12 15 1003.4 1003.4 1.0
26/01:00am 13.4 10.5 11.1 86 1.2 NW 17 24 9 13 1003.8 1003.8 1.0
26/12:30am 12.6 11.3 11.3 92 0.7 N 9 15 5 8 1004.2 1004.2 1.0
26/12:00am 11.8 9.7 11.0 95 0.4 N 13 15 7 8 1004.6 1004.6 1.0
 
Date/Time
EST
Temp
°C
App
Temp
°C
Dew
Point
°C
Rel
Hum
%
Delta-T
°C
Wind Press
QNH
hPa
Press
MSL
hPa
Rain since
9am
mm
Dir  Spd
km/h
Gust
km/h
Spd
kts
Gust
kts
25/11:30pm 12.0 10.2 10.9 93 0.6 N 11 13 6 7 1004.7 1004.7 1.0
25/11:00pm 12.6 10.4 10.8 89 0.9 NW 13 20 7 11 1004.8 1004.8 1.0
25/10:30pm 13.2 11.6 11.4 89 1.0 NW 11 15 6 8 1004.9 1004.9 1.0
25/10:00pm 13.4 10.8 12.0 91 0.8 NW 17 20 9 11 1005.4 1005.4 1.0
25/09:30pm 13.8 10.6 12.0 89 1.0 WNW 20 26 11 14 1005.7 1005.7 1.0
25/09:00pm 13.8 10.6 12.0 89 1.0 NW 20 30 11 16 1005.8 1005.8 1.0
25/08:30pm 13.9 8.0 12.5 91 0.8 NW 35 46 19 25 1006.0 1006.0 0.8
25/08:17pm 15.0 11.8 13.0 88 1.1 N 22 39 12 21 1005.7 1005.7 0.6
25/08:00pm 15.0 12.6 12.5 85 1.4 N 17 20 9 11 1005.0 1005.0 0.4
25/07:30pm 14.5 12.4 12.5 88 1.1 N 15 19 8 10 1005.2 1005.2 0.4
25/07:00pm 14.6 13.0 11.7 83 1.6 NNE 11 15 6 8 1005.5 1005.5 0.4
25/06:30pm 14.8 13.3 11.8 82 1.6 N 11 11 6 6 1005.6 1005.6 0.4

Latest Capital City Observations: Canberra | Sydney | Melbourne | Brisbane | Adelaide | Perth | Hobart | Darwin

Other Formats:

Comma delimited format used in spreadsheet applications
http://www.bom.gov.au/fwo/IDV60901/IDV60901.94854.axf

JavaScript Object Notation format (JSON) in row-major order
http://www.bom.gov.au/fwo/IDV60901/IDV60901.94854.json